createdAt,value
2023-03-26T00:01:49.814Z,100176.06
2023-03-26T00:04:19.773Z,100186.50
2023-03-26T00:06:49.039Z,100177.72
2023-03-26T00:09:19.226Z,100183.81
2023-03-26T00:11:47.329Z,100190.81
2023-03-26T00:14:17.816Z,100194.31
2023-03-26T00:16:47.493Z,100197.81
2023-03-26T00:19:16.636Z,100192.69
2023-03-26T00:21:44.525Z,100197.84
2023-03-26T00:24:15.106Z,100190.78
2023-03-26T00:26:48.457Z,100191.72
2023-03-26T00:29:16.892Z,100196.88
2023-03-26T00:31:46.107Z,100179.53
2023-03-26T00:34:15.541Z,100189.13
2023-03-26T00:36:43.944Z,100184.75
2023-03-26T00:39:11.933Z,100178.59
2023-03-26T00:41:42.995Z,100176.19
2023-03-26T00:44:12.609Z,100177.16
2023-03-26T00:46:40.689Z,100171.88
2023-03-26T00:49:10.575Z,100164.13
2023-03-26T00:51:39.211Z,100163.31
2023-03-26T00:54:08.780Z,100158.16
2023-03-26T00:56:37.046Z,100156.38
2023-03-26T00:59:05.106Z,100157.38
2023-03-26T01:01:34.378Z,100144.28
2023-03-26T01:04:28.223Z,100138.16
2023-03-26T01:06:59.927Z,100128.69
2023-03-26T01:09:33.515Z,100134.97
2023-03-26T01:12:03.271Z,100131.44
2023-03-26T01:14:31.668Z,100125.34
2023-03-26T01:17:03.035Z,100124.47
2023-03-26T01:19:38.214Z,100113.13
2023-03-26T01:22:07.046Z,100107.16
2023-03-26T01:24:45.595Z,100098.47
2023-03-26T01:27:24.328Z,100109.06
2023-03-26T01:29:56.361Z,100101.38
2023-03-26T01:32:49.181Z,100105.91
2023-03-26T01:35:26.039Z,100095.63
2023-03-26T01:38:10.929Z,100097.44
2023-03-26T01:40:46.905Z,100097.56
2023-03-26T01:43:25.465Z,100090.78
2023-03-26T01:45:54.916Z,100092.63
2023-03-26T01:48:31.198Z,100090.06
2023-03-26T01:50:59.043Z,100084.09
2023-03-26T01:53:27.605Z,100080.63
2023-03-26T01:56:04.891Z,100074.66
2023-03-26T01:58:39.048Z,100072.13
2023-03-26T02:01:27.253Z,100064.41
2023-03-26T02:04:03.009Z,100061.81
2023-03-26T02:06:37.409Z,100059.28
2023-03-26T02:09:09.115Z,100053.25
2023-03-26T02:11:41.558Z,100052.38
2023-03-26T02:14:10.495Z,100058.50
2023-03-26T02:16:38.472Z,100055.03
2023-03-26T02:19:09.965Z,100047.16
2023-03-26T02:21:37.902Z,100047.06
2023-03-26T02:24:06.134Z,100032.28
2023-03-26T02:26:38.847Z,100028.69
2023-03-26T02:29:13.400Z,100020.91
2023-03-26T02:31:43.931Z,100017.31
2023-03-26T02:34:11.857Z,100012.09
2023-03-26T02:36:43.790Z,100003.38
2023-03-26T02:39:14.229Z,100010.22
2023-03-26T02:41:49.634Z,99998.00
2023-03-26T02:44:17.686Z,100000.66
2023-03-26T02:47:00.845Z,99997.16
2023-03-26T02:49:47.146Z,99987.59
2023-03-26T02:52:22.964Z,99992.75
2023-03-26T02:54:53.513Z,99993.63
2023-03-26T02:57:25.336Z,99992.69
2023-03-26T03:00:23.231Z,99989.97
2023-03-26T03:03:27.531Z,99984.81
2023-03-26T03:06:17.212Z,99984.75
2023-03-26T03:08:50.297Z,99977.72
2023-03-26T03:11:21.964Z,99975.06
2023-03-26T03:13:53.017Z,99974.25
2023-03-26T03:16:26.806Z,99962.09
2023-03-26T03:18:58.022Z,99962.03
2023-03-26T03:21:30.862Z,99956.91
2023-03-26T03:24:00.274Z,99947.34
2023-03-26T03:26:30.660Z,99950.88
2023-03-26T03:29:05.180Z,99939.66
2023-03-26T03:31:33.365Z,99940.53
2023-03-26T03:34:05.912Z,99935.44
2023-03-26T03:36:38.561Z,99936.25
2023-03-26T03:39:25.614Z,99928.50
2023-03-26T03:41:53.645Z,99930.25
2023-03-26T03:44:22.946Z,99924.19
2023-03-26T03:46:54.074Z,99913.78
2023-03-26T03:49:23.094Z,99915.50
2023-03-26T03:51:51.167Z,99913.75
2023-03-26T03:54:28.224Z,99914.72
2023-03-26T03:57:08.679Z,99909.50
2023-03-26T03:59:52.305Z,99901.69
2023-03-26T04:02:26.143Z,99894.88
2023-03-26T04:04:58.719Z,99884.44
2023-03-26T04:07:30.586Z,99880.06
2023-03-26T04:10:10.316Z,99877.50
2023-03-26T04:13:01.556Z,99878.50
2023-03-26T04:15:50.382Z,99872.56
2023-03-26T04:18:20.344Z,99869.09
2023-03-26T04:20:49.262Z,99864.75
2023-03-26T04:23:23.343Z,99851.84
2023-03-26T04:25:59.378Z,99856.25
2023-03-26T04:28:46.338Z,99851.00
2023-03-26T04:31:29.014Z,99841.66
2023-03-26T04:34:01.466Z,99840.78
2023-03-26T04:36:32.097Z,99842.66
2023-03-26T04:39:04.855Z,99839.19
2023-03-26T04:41:52.732Z,99836.59
2023-03-26T04:44:22.608Z,99833.22
2023-03-26T04:46:57.517Z,99828.91
2023-03-26T04:49:34.496Z,99817.63
2023-03-26T04:52:02.647Z,99809.88
2023-03-26T04:54:48.985Z,99805.53
2023-03-26T04:57:23.786Z,99802.81
2023-03-26T05:00:16.609Z,99802.00
2023-03-26T05:02:50.527Z,99807.97
2023-03-26T05:05:19.621Z,99789.81
2023-03-26T05:07:47.653Z,99789.06
2023-03-26T05:10:20.403Z,99781.25
2023-03-26T05:12:59.594Z,99774.31
2023-03-26T05:15:30.967Z,99775.97
2023-03-26T05:18:00.258Z,99768.09
2023-03-26T05:20:41.478Z,99761.31
2023-03-26T05:23:11.097Z,99758.69
2023-03-26T05:25:46.995Z,99761.25
2023-03-26T05:28:19.250Z,99756.97
2023-03-26T05:31:01.006Z,99754.44
2023-03-26T05:33:34.185Z,99744.81
2023-03-26T05:36:20.562Z,99748.22
2023-03-26T05:38:53.973Z,99754.22
2023-03-26T05:41:40.357Z,99744.94
2023-03-26T05:44:08.337Z,99745.91
2023-03-26T05:46:36.401Z,99739.88
2023-03-26T05:49:06.189Z,99738.41
2023-03-26T05:51:36.817Z,99732.34
2023-03-26T05:54:23.472Z,99722.00
2023-03-26T05:57:09.365Z,99715.16
2023-03-26T05:59:56.480Z,99710.81
2023-03-26T06:02:43.174Z,99713.41
2023-03-26T06:05:37.279Z,99716.03
2023-03-26T06:08:12.927Z,99707.31
2023-03-26T06:10:41.340Z,99708.94
2023-03-26T06:13:09.242Z,99702.06
2023-03-26T06:15:40.678Z,99695.06
2023-03-26T06:18:17.793Z,99685.78
2023-03-26T06:21:22.301Z,99695.31
2023-03-26T06:23:54.342Z,99680.72
2023-03-26T06:26:52.359Z,99673.00
2023-03-26T06:29:38.727Z,99675.50
2023-03-26T06:32:33.038Z,99667.94
2023-03-26T06:35:07.555Z,99659.13
2023-03-26T06:37:36.812Z,99655.94
2023-03-26T06:40:05.079Z,99656.72
2023-03-26T06:43:07.646Z,99652.53
2023-03-26T06:46:01.621Z,99643.78
2023-03-26T06:48:38.934Z,99653.31
2023-03-26T06:51:16.348Z,99661.13
2023-03-26T06:54:04.078Z,99658.25
2023-03-26T06:57:07.307Z,99652.09
2023-03-26T06:59:58.231Z,99646.19
2023-03-26T07:02:44.837Z,99653.91
2023-03-26T07:05:31.815Z,99658.31
2023-03-26T07:08:12.237Z,99640.06
2023-03-26T07:11:08.077Z,99639.16
2023-03-26T07:13:36.670Z,99636.78
2023-03-26T07:16:33.750Z,99630.53
2023-03-26T07:19:31.288Z,99633.97
2023-03-26T07:22:00.510Z,99616.94
2023-03-26T07:24:49.801Z,99618.44
2023-03-26T07:27:50.872Z,99615.75
2023-03-26T07:30:33.849Z,99603.72
2023-03-26T07:33:27.666Z,99610.66
2023-03-26T07:36:24.028Z,99605.34
2023-03-26T07:39:15.909Z,99594.84
2023-03-26T07:42:11.069Z,99593.19
2023-03-26T07:45:11.314Z,99597.56
2023-03-26T07:47:53.532Z,99583.72
2023-03-26T07:50:47.223Z,99582.09
2023-03-26T07:53:29.564Z,99582.91
2023-03-26T07:56:24.875Z,99580.22
2023-03-26T07:59:29.075Z,99576.63
2023-03-26T08:02:36.930Z,99573.84
2023-03-26T08:05:29.759Z,99565.22
2023-03-26T08:08:29.193Z,99565.38
2023-03-26T08:11:31.099Z,99563.63
2023-03-26T08:14:09.578Z,99565.34
2023-03-26T08:16:47.836Z,99563.59
2023-03-26T08:19:37.702Z,99559.28
2023-03-26T08:22:14.348Z,99553.28
2023-03-26T08:24:55.765Z,99547.00
2023-03-26T08:27:29.498Z,99553.06
2023-03-26T08:30:04.929Z,99545.31
2023-03-26T08:32:33.367Z,99551.34
2023-03-26T08:35:05.029Z,99551.34
2023-03-26T08:37:32.985Z,99555.00
2023-03-26T08:40:00.822Z,99553.19
2023-03-26T08:43:04.666Z,99553.84
2023-03-26T08:46:13.191Z,99554.75
2023-03-26T08:49:01.492Z,99553.94
2023-03-26T08:52:07.134Z,99548.75
2023-03-26T08:54:52.419Z,99542.53
2023-03-26T08:58:02.872Z,99544.41
2023-03-26T09:00:54.999Z,99535.91
2023-03-26T09:03:41.311Z,99535.97
2023-03-26T09:06:33.543Z,99529.16
2023-03-26T09:09:45.967Z,99522.06
2023-03-26T09:12:41.867Z,99514.34
2023-03-26T09:15:56.339Z,99519.63
2023-03-26T09:18:59.920Z,99516.44
2023-03-26T09:21:45.008Z,99508.50
2023-03-26T09:24:44.682Z,99506.91
2023-03-26T09:27:34.736Z,99500.91
2023-03-26T09:30:39.380Z,99490.44
2023-03-26T09:33:48.298Z,99482.72
2023-03-26T09:36:33.381Z,99469.00
2023-03-26T09:39:11.504Z,99467.44
2023-03-26T09:41:44.716Z,99466.31
2023-03-26T09:44:54.004Z,99460.28
2023-03-26T09:48:07.512Z,99457.53
2023-03-26T09:51:07.988Z,99453.19
2023-03-26T09:53:53.559Z,99440.81
2023-03-26T09:56:30.912Z,99446.72
2023-03-26T09:59:24.634Z,99440.25
2023-03-26T10:02:01.756Z,99441.06
2023-03-26T10:05:00.324Z,99441.56
2023-03-26T10:07:55.916Z,99435.53
2023-03-26T10:10:32.758Z,99430.16
2023-03-26T10:13:14.852Z,99426.25
2023-03-26T10:16:01.110Z,99418.66
2023-03-26T10:18:40.860Z,99414.66
2023-03-26T10:21:15.758Z,99411.09
2023-03-26T10:23:56.983Z,99414.03
2023-03-26T10:26:37.421Z,99411.00
2023-03-26T10:29:17.032Z,99410.09
2023-03-26T10:31:48.582Z,99405.19
2023-03-26T10:34:32.346Z,99398.06
2023-03-26T10:37:09.677Z,99394.47
2023-03-26T10:40:01.940Z,99394.38
2023-03-26T10:43:04.062Z,99393.75
2023-03-26T10:45:54.524Z,99389.56
2023-03-26T10:48:36.009Z,99384.81
2023-03-26T10:51:25.925Z,99379.72
2023-03-26T10:53:58.125Z,99380.09
2023-03-26T10:56:33.189Z,99385.34
2023-03-26T10:59:06.670Z,99377.13
2023-03-26T11:01:44.108Z,99377.59
2023-03-26T11:04:25.615Z,99370.44
2023-03-26T11:07:04.952Z,99374.69
2023-03-26T11:09:42.411Z,99375.56
2023-03-26T11:12:26.758Z,99352.84
2023-03-26T11:15:08.804Z,99359.28
2023-03-26T11:17:49.886Z,99359.97
2023-03-26T11:20:23.688Z,99345.00
2023-03-26T11:23:09.632Z,99345.09
2023-03-26T11:26:01.781Z,99344.13
2023-03-26T11:29:03.267Z,99340.56
2023-03-26T11:31:46.406Z,99340.88
2023-03-26T11:34:17.476Z,99337.69
2023-03-26T11:36:51.820Z,99333.50
2023-03-26T11:39:25.434Z,99333.56
2023-03-26T11:42:00.372Z,99331.19
2023-03-26T11:44:43.112Z,99323.59
2023-03-26T11:47:15.114Z,99322.38
2023-03-26T11:49:45.501Z,99325.50
2023-03-26T11:52:15.776Z,99315.31
2023-03-26T11:54:48.297Z,99322.03
2023-03-26T11:57:21.970Z,99337.47
2023-03-26T11:59:57.896Z,99341.91
2023-03-26T12:02:32.351Z,99349.41
2023-03-26T12:05:31.545Z,99330.78
2023-03-26T12:08:03.361Z,99343.91
2023-03-26T12:10:37.659Z,99337.97
2023-03-26T12:13:29.340Z,99347.63
2023-03-26T12:15:59.961Z,99353.81
2023-03-26T12:18:29.437Z,99359.00
2023-03-26T12:21:09.298Z,99350.81
2023-03-26T12:23:52.443Z,99349.53
2023-03-26T12:26:21.959Z,99344.06
2023-03-26T12:28:52.662Z,99355.91
2023-03-26T12:31:20.628Z,99346.00
2023-03-26T12:34:05.065Z,99350.69
2023-03-26T12:36:35.811Z,99349.31
2023-03-26T12:40:11.853Z,99350.84
2023-03-26T12:44:49.799Z,99350.22
2023-03-26T12:45:15.860Z,99349.19
2023-03-26T12:48:00.800Z,99353.06
2023-03-26T12:50:51.095Z,99351.56
2023-03-26T12:53:39.567Z,99353.69
2023-03-26T12:56:21.805Z,99349.69
2023-03-26T12:59:03.885Z,99348.63
2023-03-26T13:01:42.754Z,99352.28
2023-03-26T13:04:30.125Z,99355.22
2023-03-26T13:07:02.568Z,99365.59
2023-03-26T13:09:50.417Z,99356.91
2023-03-26T13:12:33.999Z,99366.09
2023-03-26T13:15:17.800Z,99364.59
2023-03-26T13:17:57.588Z,99365.06
2023-03-26T13:20:33.152Z,99369.31
2023-03-26T13:23:10.800Z,99363.06
2023-03-26T13:25:46.645Z,99366.22
2023-03-26T13:28:28.129Z,99370.31
2023-03-26T13:31:06.384Z,99369.78
2023-03-26T13:33:41.176Z,99362.88
2023-03-26T13:36:23.733Z,99365.94
2023-03-26T13:39:03.550Z,99358.03
2023-03-26T13:41:44.412Z,99363.00
2023-03-26T13:44:23.655Z,99362.84
2023-03-26T13:46:54.213Z,99367.06
2023-03-26T13:49:37.180Z,99371.81
2023-03-26T13:52:09.385Z,99377.38
2023-03-26T13:54:44.806Z,99377.53
2023-03-26T13:57:19.965Z,99388.09
2023-03-26T13:59:55.642Z,99386.09
2023-03-26T14:02:25.834Z,99383.63
2023-03-26T14:04:58.770Z,99383.94
2023-03-26T14:07:32.201Z,99381.34
2023-03-26T14:10:06.122Z,99380.31
2023-03-26T14:12:48.951Z,99377.41
2023-03-26T14:15:25.790Z,99385.44
2023-03-26T14:17:59.944Z,99375.66
2023-03-26T14:20:44.473Z,99380.50
2023-03-26T14:23:35.063Z,99378.84
2023-03-26T14:26:15.035Z,99383.28
2023-03-26T14:29:09.876Z,99389.78
2023-03-26T14:31:43.279Z,99392.91
2023-03-26T14:34:33.240Z,99396.03
2023-03-26T14:37:27.023Z,99395.00
2023-03-26T14:40:28.921Z,99400.19
2023-03-26T14:43:12.808Z,99400.06
2023-03-26T14:45:53.598Z,99400.09
2023-03-26T14:48:54.601Z,99406.84
2023-03-26T14:51:42.288Z,99406.53
2023-03-26T14:54:14.210Z,99402.31
2023-03-26T14:57:20.003Z,99408.34
2023-03-26T15:00:16.557Z,99408.78
2023-03-26T15:03:26.747Z,99410.97
2023-03-26T15:06:23.339Z,99414.91
2023-03-26T15:09:42.739Z,99411.56
2023-03-26T15:12:22.042Z,99413.94
2023-03-26T15:15:24.945Z,99422.97
2023-03-26T15:18:25.405Z,99425.78
2023-03-26T15:21:28.911Z,99427.38
2023-03-26T15:24:26.057Z,99430.44
2023-03-26T15:27:33.639Z,99430.06
2023-03-26T15:30:28.272Z,99440.00
2023-03-26T15:33:25.030Z,99445.25
2023-03-26T15:36:21.353Z,99447.41
2023-03-26T15:39:31.950Z,99446.88
2023-03-26T15:42:10.077Z,99450.88
2023-03-26T15:44:58.659Z,99453.53
2023-03-26T15:47:52.275Z,99458.72
2023-03-26T15:50:31.869Z,99453.72
2023-03-26T15:53:14.541Z,99470.97
2023-03-26T15:55:53.576Z,99470.97
2023-03-26T15:58:28.685Z,99482.63
2023-03-26T16:01:18.995Z,99480.72
2023-03-26T16:03:58.308Z,99497.69
2023-03-26T16:06:35.477Z,99497.78
2023-03-26T16:09:25.275Z,99500.84
2023-03-26T16:11:57.270Z,99510.22
2023-03-26T16:14:43.341Z,99513.28
2023-03-26T16:17:15.081Z,99514.00
2023-03-26T16:19:53.008Z,99519.41
2023-03-26T16:22:43.425Z,99519.03
2023-03-26T16:25:28.972Z,99516.50
2023-03-26T16:28:35.431Z,99528.56
2023-03-26T16:31:37.923Z,99543.91
2023-03-26T16:34:43.574Z,99544.97
2023-03-26T16:37:43.808Z,99542.47
2023-03-26T16:40:34.897Z,99560.00
2023-03-26T16:43:27.943Z,99558.56
2023-03-26T16:46:03.444Z,99567.06
2023-03-26T16:48:36.950Z,99564.72
2023-03-26T16:51:14.903Z,99576.97
2023-03-26T16:53:51.259Z,99576.00
2023-03-26T16:56:34.766Z,99593.50
2023-03-26T16:59:08.060Z,99588.53
2023-03-26T17:01:42.972Z,99598.78
2023-03-26T17:04:17.252Z,99601.56
2023-03-26T17:07:05.602Z,99607.47
2023-03-26T17:09:42.671Z,99613.63
2023-03-26T17:12:19.831Z,99608.88
2023-03-26T17:15:04.787Z,99626.19
2023-03-26T17:17:50.441Z,99633.22
2023-03-26T17:20:32.926Z,99643.72
2023-03-26T17:23:11.528Z,99642.22
2023-03-26T17:25:52.971Z,99645.78
2023-03-26T17:28:40.500Z,99654.19
2023-03-26T17:31:20.324Z,99657.84
2023-03-26T17:33:48.896Z,99667.56
2023-03-26T17:36:43.284Z,99674.34
2023-03-26T17:40:09.303Z,99678.06
2023-03-26T17:42:37.535Z,99685.16
2023-03-26T17:45:09.508Z,99692.81
2023-03-26T17:47:41.137Z,99695.50
2023-03-26T17:50:15.664Z,99696.38
2023-03-26T17:52:54.854Z,99714.09
2023-03-26T17:55:30.472Z,99709.88
2023-03-26T17:57:59.194Z,99724.06
2023-03-26T18:00:30.665Z,99730.72
2023-03-26T18:03:01.667Z,99729.19
2023-03-26T18:05:31.859Z,99732.00
2023-03-26T18:08:16.925Z,99750.03
2023-03-26T18:11:12.258Z,99750.09
2023-03-26T18:14:07.155Z,99757.97
2023-03-26T18:16:40.078Z,99758.88
2023-03-26T18:19:18.231Z,99772.94
2023-03-26T18:21:50.042Z,99778.09
2023-03-26T18:24:24.426Z,99783.38
2023-03-26T18:26:58.333Z,99790.44
2023-03-26T18:29:28.442Z,99793.88
2023-03-26T18:32:00.438Z,99806.13
2023-03-26T18:34:32.126Z,99807.84
2023-03-26T18:37:10.913Z,99805.25
2023-03-26T18:39:40.142Z,99822.59
2023-03-26T18:42:22.544Z,99834.13
2023-03-26T18:44:52.961Z,99834.94
2023-03-26T18:47:21.660Z,99832.47
2023-03-26T18:49:53.297Z,99847.19
2023-03-26T18:52:22.446Z,99848.00
2023-03-26T18:54:55.109Z,99856.78
2023-03-26T18:57:25.814Z,99866.44
2023-03-26T18:59:55.920Z,99874.13
2023-03-26T19:02:26.239Z,99875.81
2023-03-26T19:04:55.394Z,99872.34
2023-03-26T19:07:26.876Z,99873.19
2023-03-26T19:09:56.692Z,99881.00
2023-03-26T19:12:30.886Z,99884.53
2023-03-26T19:15:05.260Z,99895.81
2023-03-26T19:17:39.653Z,99894.28
2023-03-26T19:20:14.826Z,99906.44
2023-03-26T19:22:44.616Z,99921.22
2023-03-26T19:25:22.477Z,99913.34
2023-03-26T19:27:51.901Z,99925.53
2023-03-26T19:30:28.486Z,99914.34
2023-03-26T19:33:12.219Z,99933.50
2023-03-26T19:35:42.632Z,99936.06
2023-03-26T19:38:27.890Z,99945.63
2023-03-26T19:40:58.999Z,99952.75
2023-03-26T19:43:28.103Z,99949.31
2023-03-26T19:46:01.230Z,99949.31
2023-03-26T19:48:45.760Z,99961.63
2023-03-26T19:51:21.092Z,99969.41
2023-03-26T19:53:53.005Z,99968.50
2023-03-26T19:56:23.623Z,99979.88
2023-03-26T19:58:52.420Z,99986.84
2023-03-26T20:01:22.794Z,99987.66
2023-03-26T20:03:53.396Z,99994.63
2023-03-26T20:06:30.861Z,99999.09
2023-03-26T20:09:06.319Z,100002.59
2023-03-26T20:11:38.721Z,100009.47
2023-03-26T20:14:13.841Z,100024.25
2023-03-26T20:16:44.319Z,100029.44
2023-03-26T20:19:14.318Z,100032.03
2023-03-26T20:21:43.383Z,100033.81
2023-03-26T20:24:14.729Z,100042.44
2023-03-26T20:26:44.587Z,100039.00
2023-03-26T20:29:13.016Z,100050.22
2023-03-26T20:31:42.052Z,100045.03
2023-03-26T20:34:16.836Z,100048.53
2023-03-26T20:36:45.588Z,100067.50
2023-03-26T20:39:13.936Z,100074.41
2023-03-26T20:41:46.545Z,100058.94
2023-03-26T20:44:16.703Z,100068.53
2023-03-26T20:46:46.685Z,100073.72
2023-03-26T20:49:15.023Z,100086.63
2023-03-26T20:51:44.534Z,100091.88
2023-03-26T20:54:17.522Z,100091.13
2023-03-26T20:56:47.992Z,100102.38
2023-03-26T20:59:21.628Z,100111.94
2023-03-26T21:01:50.948Z,100103.22
2023-03-26T21:04:20.333Z,100103.38
2023-03-26T21:06:48.712Z,100114.63
2023-03-26T21:09:18.995Z,100105.09
2023-03-26T21:11:54.989Z,100117.25
2023-03-26T21:14:25.781Z,100126.75
2023-03-26T21:16:54.639Z,100132.84
2023-03-26T21:19:23.150Z,100130.25
2023-03-26T21:22:00.827Z,100139.78
2023-03-26T21:24:45.003Z,100144.09
2023-03-26T21:27:22.310Z,100143.25
2023-03-26T21:29:52.502Z,100151.94
2023-03-26T21:32:21.308Z,100160.59
2023-03-26T21:34:58.617Z,100163.13
2023-03-26T21:37:28.117Z,100174.44
2023-03-26T21:39:56.591Z,100179.66
2023-03-26T21:42:29.236Z,100180.66
2023-03-26T21:44:57.700Z,100191.88
2023-03-26T21:47:26.266Z,100197.91
2023-03-26T21:49:54.764Z,100201.38
2023-03-26T21:52:23.921Z,100199.69
2023-03-26T21:54:52.640Z,100211.03
2023-03-26T21:57:45.346Z,100213.59
2023-03-26T22:00:18.389Z,100229.25
2023-03-26T22:03:01.169Z,100237.03
2023-03-26T22:05:37.886Z,100237.03
2023-03-26T22:08:08.044Z,100249.19
2023-03-26T22:10:37.718Z,100251.81
2023-03-26T22:13:06.913Z,100264.81
2023-03-26T22:15:35.154Z,100264.84
2023-03-26T22:18:03.981Z,100276.06
2023-03-26T22:20:32.531Z,100282.13
2023-03-26T22:23:01.835Z,100281.28
2023-03-26T22:25:30.200Z,100304.66
2023-03-26T22:27:58.225Z,100311.56
2023-03-26T22:30:27.770Z,100303.75
2023-03-26T22:32:55.688Z,100316.78
2023-03-26T22:35:23.695Z,100323.72
2023-03-26T22:37:51.624Z,100332.38
2023-03-26T22:40:20.497Z,100336.72
2023-03-26T22:42:48.536Z,100337.59
2023-03-26T22:45:17.120Z,100351.44
2023-03-26T22:47:46.421Z,100367.84
2023-03-26T22:50:14.350Z,100373.91
2023-03-26T22:52:42.176Z,100383.41
2023-03-26T22:55:10.927Z,100394.66
2023-03-26T22:57:38.834Z,100404.16
2023-03-26T23:00:16.129Z,100415.38
2023-03-26T23:02:45.812Z,100416.25
2023-03-26T23:05:17.352Z,100423.16
2023-03-26T23:07:45.909Z,100417.13
2023-03-26T23:10:14.836Z,100434.41
2023-03-26T23:12:42.690Z,100444.75
2023-03-26T23:15:11.585Z,100450.75
2023-03-26T23:17:39.628Z,100438.66
2023-03-26T23:20:14.422Z,100460.25
2023-03-26T23:22:44.541Z,100461.06
2023-03-26T23:25:13.046Z,100468.84
2023-03-26T23:27:41.183Z,100467.09
2023-03-26T23:30:10.966Z,100472.28
2023-03-26T23:32:38.889Z,100472.25
2023-03-26T23:35:07.618Z,100487.81
2023-03-26T23:37:35.836Z,100495.53
2023-03-26T23:40:09.885Z,100495.50
2023-03-26T23:42:38.298Z,100510.19
2023-03-26T23:45:08.219Z,100519.59
2023-03-26T23:47:36.379Z,100522.16
2023-03-26T23:50:05.777Z,100527.31
2023-03-26T23:52:33.596Z,100533.34
2023-03-26T23:55:01.419Z,100547.94
2023-03-26T23:57:31.851Z,100559.19
2023-03-26T23:59:59.679Z,100561.72
